createdAt,value
2018-09-08T00:02:08.577Z,100424.44
2018-09-08T00:04:36.299Z,100426.07
2018-09-08T00:07:10.139Z,100423.24
2018-09-08T00:09:37.890Z,100424.91
2018-09-08T00:12:06.091Z,100425.72
2018-09-08T00:14:33.367Z,100425.02
2018-09-08T00:17:06.939Z,100431.96
2018-09-08T00:19:40.456Z,100435.11
2018-09-08T00:22:14.008Z,100428.05
2018-09-08T00:24:47.283Z,100430.14
2018-09-08T00:27:19.254Z,100436.42
2018-09-08T00:29:48.280Z,100446.03
2018-09-08T00:32:16.736Z,100440.64
2018-09-08T00:34:44.538Z,100444.59
2018-09-08T00:37:12.467Z,100441.61
2018-09-08T00:39:42.035Z,100441.58
2018-09-08T00:42:09.916Z,100440.14
2018-09-08T00:44:37.585Z,100445.91
2018-09-08T00:47:05.338Z,100447.23
2018-09-08T00:49:33.282Z,100446.41
2018-09-08T00:52:00.975Z,100449.71
2018-09-08T00:54:28.776Z,100448.08
2018-09-08T00:56:56.534Z,100445.48
2018-09-08T00:59:24.304Z,100443.22
2018-09-08T01:01:52.074Z,100445.80
2018-09-08T01:04:19.855Z,100444.67
2018-09-08T01:06:47.614Z,100445.48
2018-09-08T01:09:15.338Z,100446.49
2018-09-08T01:11:43.411Z,100446.18
2018-09-08T01:14:11.168Z,100446.55
2018-09-08T01:16:38.851Z,100453.48
2018-09-08T01:19:06.652Z,100453.86
2018-09-08T01:21:34.498Z,100455.84
2018-09-08T01:24:02.479Z,100454.58
2018-09-08T01:26:30.191Z,100452.34
2018-09-08T01:28:57.914Z,100452.66
2018-09-08T01:31:25.674Z,100459.94
2018-09-08T01:33:53.361Z,100457.14
2018-09-08T01:36:21.369Z,100459.28
2018-09-08T01:38:49.066Z,100463.09
2018-09-08T01:41:16.894Z,100463.09
2018-09-08T01:43:44.600Z,100467.55
2018-09-08T01:46:12.347Z,100462.59
2018-09-08T01:48:40.083Z,100456.70
2018-09-08T01:51:07.886Z,100459.49
2018-09-08T01:53:35.617Z,100461.81
2018-09-08T01:56:03.311Z,100457.23
2018-09-08T01:58:31.080Z,100462.02
2018-09-08T02:00:58.810Z,100466.84
2018-09-08T02:03:30.180Z,100470.66
2018-09-08T02:05:57.879Z,100467.18
2018-09-08T02:08:25.603Z,100463.41
2018-09-08T02:10:53.296Z,100470.19
2018-09-08T02:13:20.979Z,100472.19
2018-09-08T02:15:48.701Z,100479.29
2018-09-08T02:18:16.439Z,100481.94
2018-09-08T02:20:44.156Z,100479.31
2018-09-08T02:23:11.866Z,100479.05
2018-09-08T02:25:39.548Z,100475.18
2018-09-08T02:28:07.430Z,100479.81
2018-09-08T02:30:35.232Z,100478.50
2018-09-08T02:33:03.232Z,100484.84
2018-09-08T02:35:31.220Z,100475.30
2018-09-08T02:37:58.927Z,100476.95
2018-09-08T02:40:26.652Z,100471.84
2018-09-08T02:42:54.407Z,100472.50
2018-09-08T02:45:22.067Z,100473.16
2018-09-08T02:47:49.908Z,100476.11
2018-09-08T02:50:43.377Z,100477.41
2018-09-08T02:53:10.950Z,100474.37
2018-09-08T02:55:37.698Z,100474.72
2018-09-08T02:58:04.027Z,100469.97
2018-09-08T03:00:30.804Z,100472.28
2018-09-08T03:02:57.194Z,100469.02
2018-09-08T03:08:24.288Z,100465.10
2018-09-08T03:10:50.691Z,100462.47
2018-09-08T03:13:17.022Z,100462.66
2018-09-08T03:15:43.479Z,100467.59
2018-09-08T03:18:09.913Z,100469.55
2018-09-08T03:20:36.329Z,100469.03
2018-09-08T03:23:02.664Z,100474.66
2018-09-08T03:25:29.012Z,100472.04
2018-09-08T03:27:55.343Z,100472.55
2018-09-08T03:32:54.859Z,100469.80
2018-09-08T03:35:21.281Z,100467.84
2018-09-08T03:37:47.626Z,100468.72
2018-09-08T03:40:14.042Z,100472.34
2018-09-08T03:42:40.375Z,100470.53
2018-09-08T03:45:07.042Z,100468.45
2018-09-08T03:47:33.506Z,100478.11
2018-09-08T03:49:59.833Z,100476.48
2018-09-08T03:52:26.279Z,100471.27
2018-09-08T03:54:52.670Z,100470.77
2018-09-08T03:57:19.007Z,100474.39
2018-09-08T03:59:45.461Z,100473.72
2018-09-08T04:02:11.918Z,100476.67
2018-09-08T04:04:39.636Z,100478.98
2018-09-08T04:07:07.452Z,100483.10
2018-09-08T04:09:40.818Z,100481.47
2018-09-08T04:12:08.867Z,100481.33
2018-09-08T04:14:36.531Z,100481.83
2018-09-08T04:17:04.220Z,100480.87
2018-09-08T04:19:31.919Z,100478.74
2018-09-08T04:21:59.762Z,100476.61
2018-09-08T04:24:27.442Z,100475.44
2018-09-08T04:26:55.147Z,100478.92
2018-09-08T04:29:22.857Z,100474.63
2018-09-08T04:31:50.616Z,100480.41
2018-09-08T04:34:18.662Z,100477.93
2018-09-08T04:36:46.431Z,100483.05
2018-09-08T04:39:14.244Z,100482.23
2018-09-08T04:41:41.983Z,100483.22
2018-09-08T04:44:10.022Z,100481.23
2018-09-08T04:46:37.798Z,100478.61
2018-09-08T04:49:05.514Z,100481.59
2018-09-08T04:51:33.272Z,100481.52
2018-09-08T04:57:11.336Z,100485.84
2018-09-08T04:59:39.046Z,100491.78
2018-09-08T05:02:06.766Z,100495.22
2018-09-08T05:04:35.479Z,100495.08
2018-09-08T05:07:03.211Z,100494.41
2018-09-08T05:09:31.068Z,100494.76
2018-09-08T05:11:59.017Z,100500.68
2018-09-08T05:14:26.756Z,100501.50
2018-09-08T05:16:54.427Z,100509.52
2018-09-08T05:19:22.107Z,100508.56
2018-09-08T05:21:49.860Z,100513.96
2018-09-08T05:24:21.381Z,100510.20
2018-09-08T05:26:49.084Z,100510.55
2018-09-08T05:29:16.771Z,100508.56
2018-09-08T05:31:44.492Z,100511.83
2018-09-08T05:34:12.187Z,100517.59
2018-09-08T05:36:39.885Z,100522.66
2018-09-08T05:39:07.856Z,100514.14
2018-09-08T05:41:35.903Z,100526.92
2018-09-08T05:44:03.779Z,100526.11
2018-09-08T05:46:31.439Z,100536.95
2018-09-08T05:48:59.440Z,100532.16
2018-09-08T05:51:27.071Z,100533.62
2018-09-08T05:53:55.058Z,100533.94
2018-09-08T05:56:22.823Z,100534.76
2018-09-08T05:58:50.514Z,100534.23
2018-09-08T06:01:18.331Z,100533.70
2018-09-08T06:03:46.203Z,100535.86
2018-09-08T06:06:13.926Z,100540.77
2018-09-08T06:08:41.752Z,100537.95
2018-09-08T06:11:09.532Z,100540.72
2018-09-08T06:13:37.355Z,100540.67
2018-09-08T06:16:05.230Z,100544.56
2018-09-08T06:18:32.926Z,100540.90
2018-09-08T06:21:01.078Z,100541.70
2018-09-08T06:23:28.730Z,100542.02
2018-09-08T06:26:02.151Z,100540.69
2018-09-08T06:28:29.861Z,100543.95
2018-09-08T06:30:57.871Z,100540.34
2018-09-08T06:33:25.703Z,100549.88
2018-09-08T06:35:53.378Z,100549.63
2018-09-08T06:38:21.089Z,100551.76
2018-09-08T06:40:48.843Z,100553.57
2018-09-08T06:43:16.826Z,100551.24
2018-09-08T06:45:44.699Z,100547.25
2018-09-08T06:48:12.492Z,100546.91
2018-09-08T06:50:40.194Z,100545.31
2018-09-08T06:53:07.996Z,100553.72
2018-09-08T06:55:35.746Z,100556.14
2018-09-08T06:58:03.460Z,100550.98
2018-09-08T07:00:31.099Z,100546.61
2018-09-08T07:02:58.923Z,100547.86
2018-09-08T07:05:26.632Z,100545.41
2018-09-08T07:07:54.347Z,100546.14
2018-09-08T07:10:22.177Z,100536.42
2018-09-08T07:12:49.992Z,100546.24
2018-09-08T07:15:17.728Z,100543.36
2018-09-08T07:17:45.390Z,100543.70
2018-09-08T07:20:13.275Z,100548.65
2018-09-08T07:22:41.068Z,100548.42
2018-09-08T07:25:09.083Z,100543.50
2018-09-08T07:27:36.738Z,100535.48
2018-09-08T07:30:04.779Z,100537.81
2018-09-08T07:32:32.553Z,100539.78
2018-09-08T07:35:00.415Z,100543.53
2018-09-08T07:37:28.336Z,100541.69
2018-09-08T07:39:56.031Z,100541.84
2018-09-08T07:42:23.739Z,100545.12
2018-09-08T07:44:51.919Z,100545.34
2018-09-08T07:47:19.581Z,100543.05
2018-09-08T07:49:47.375Z,100545.55
2018-09-08T07:52:15.119Z,100545.80
2018-09-08T07:54:42.907Z,100550.30
2018-09-08T07:57:10.627Z,100545.67
2018-09-08T07:59:38.460Z,100541.05
2018-09-08T08:02:06.300Z,100538.74
2018-09-08T08:04:34.095Z,100540.16
2018-09-08T08:07:01.755Z,100544.91
2018-09-08T08:09:29.782Z,100543.84
2018-09-08T08:11:57.543Z,100549.59
2018-09-08T08:14:25.445Z,100550.50
2018-09-08T08:16:53.494Z,100552.36
2018-09-08T08:19:21.303Z,100553.27
2018-09-08T08:21:49.369Z,100548.59
2018-09-08T08:24:17.167Z,100549.77
2018-09-08T08:26:45.063Z,100554.88
2018-09-08T08:29:12.846Z,100548.13
2018-09-08T08:31:40.566Z,100546.09
2018-09-08T08:34:08.625Z,100548.93
2018-09-08T08:36:36.511Z,100550.04
2018-09-08T08:39:07.191Z,100552.95
2018-09-08T08:41:34.938Z,100551.91
2018-09-08T08:44:02.666Z,100552.72
2018-09-08T08:46:30.450Z,100550.34
2018-09-08T08:48:58.220Z,100552.78
2018-09-08T08:52:43.010Z,100546.06
2018-09-08T08:55:09.327Z,100546.06
2018-09-08T08:57:37.115Z,100538.58
2018-09-08T09:00:04.920Z,100548.45
2018-09-08T09:02:32.748Z,100540.73
2018-09-08T09:05:00.703Z,100541.41
2018-09-08T09:07:28.404Z,100540.11
2018-09-08T09:09:56.428Z,100537.38
2018-09-08T09:12:24.507Z,100536.27
2018-09-08T09:14:52.267Z,100529.86
2018-09-08T09:17:20.086Z,100531.19
2018-09-08T09:20:05.325Z,100524.73
2018-09-08T09:22:50.514Z,100521.17
2018-09-08T09:25:18.379Z,100522.64
2018-09-08T09:27:47.306Z,100516.53
2018-09-08T09:30:15.801Z,100516.59
2018-09-08T09:32:43.542Z,100516.44
2018-09-08T09:35:13.023Z,100518.80
2018-09-08T09:37:41.223Z,100504.24
2018-09-08T09:40:09.581Z,100498.39
2018-09-08T09:42:37.387Z,100498.17
2018-09-08T09:45:05.727Z,100495.36
2018-09-08T09:47:37.406Z,100494.17
2018-09-08T09:50:06.755Z,100496.28
2018-09-08T09:52:34.490Z,100499.72
2018-09-08T09:55:02.220Z,100506.14
2018-09-08T09:57:30.026Z,100499.42
2018-09-08T09:59:57.814Z,100498.27
2018-09-08T10:02:43.355Z,100500.14
2018-09-08T10:05:13.234Z,100499.29
2018-09-08T10:07:40.950Z,100494.00
2018-09-08T10:10:17.790Z,100487.63
2018-09-08T10:12:45.602Z,100492.52
2018-09-08T10:15:13.307Z,100491.20
2018-09-08T10:17:42.103Z,100492.23
2018-09-08T10:20:17.248Z,100485.16
2018-09-08T10:22:44.987Z,100478.32
2018-09-08T10:25:15.007Z,100481.59
2018-09-08T10:27:43.464Z,100477.97
2018-09-08T10:30:11.975Z,100484.74
2018-09-08T10:32:40.568Z,100484.91
2018-09-08T10:35:08.339Z,100479.73
2018-09-08T10:37:36.227Z,100472.02
2018-09-08T10:40:04.023Z,100469.00
2018-09-08T10:42:32.037Z,100465.93
2018-09-08T10:44:59.839Z,100464.19
2018-09-08T10:47:27.507Z,100467.41
2018-09-08T10:49:55.298Z,100462.83
2018-09-08T10:52:32.878Z,100459.60
2018-09-08T10:55:00.768Z,100461.13
2018-09-08T10:57:28.492Z,100458.84
2018-09-08T10:59:56.395Z,100460.19
2018-09-08T11:02:24.450Z,100453.30
2018-09-08T11:04:52.009Z,100464.92
2018-09-08T11:07:19.699Z,100453.62
2018-09-08T11:09:47.490Z,100444.31
2018-09-08T11:12:18.477Z,100447.52
2018-09-08T11:14:46.274Z,100448.02
2018-09-08T11:17:14.123Z,100447.28
2018-09-08T11:19:41.811Z,100449.16
2018-09-08T11:22:09.576Z,100442.47
2018-09-08T11:24:37.366Z,100435.75
2018-09-08T11:27:05.361Z,100429.11
2018-09-08T11:29:33.087Z,100431.80
2018-09-08T11:32:00.731Z,100421.84
2018-09-08T11:34:28.542Z,100423.11
2018-09-08T11:36:56.251Z,100421.33
2018-09-08T11:39:23.927Z,100427.45
2018-09-08T11:41:51.687Z,100420.19
2018-09-08T11:44:19.603Z,100415.89
2018-09-08T11:46:47.426Z,100410.88
2018-09-08T11:49:15.086Z,100414.27
2018-09-08T11:51:42.748Z,100412.90
2018-09-08T11:54:10.418Z,100415.52
2018-09-08T11:56:38.170Z,100412.77
2018-09-08T11:59:06.122Z,100413.49
2018-09-08T12:01:33.831Z,100404.69
2018-09-08T12:04:01.930Z,100400.34
2018-09-08T12:06:29.794Z,100397.30
2018-09-08T12:08:57.583Z,100396.53
2018-09-08T12:11:25.330Z,100394.80
2018-09-08T12:13:53.514Z,100388.52
2018-09-08T12:16:21.203Z,100384.91
2018-09-08T12:18:49.032Z,100381.71
2018-09-08T12:21:19.154Z,100381.15
2018-09-08T12:23:46.882Z,100382.40
2018-09-08T12:26:14.954Z,100380.38
2018-09-08T12:28:42.718Z,100386.85
2018-09-08T12:31:10.415Z,100396.28
2018-09-08T12:33:38.135Z,100384.59
2018-09-08T12:36:06.022Z,100383.36
2018-09-08T12:38:33.778Z,100383.63
2018-09-08T12:41:01.628Z,100378.48
2018-09-08T12:43:29.422Z,100381.06
2018-09-08T12:46:03.639Z,100378.03
2018-09-08T12:48:31.322Z,100385.55
2018-09-08T12:50:59.022Z,100374.04
2018-09-08T12:53:26.820Z,100381.00
2018-09-08T12:55:54.431Z,100379.36
2018-09-08T12:58:22.155Z,100375.83
2018-09-08T13:00:49.878Z,100372.91
2018-09-08T13:03:17.566Z,100376.06
2018-09-08T13:05:45.324Z,100374.30
2018-09-08T13:08:13.116Z,100368.59
2018-09-08T13:10:40.854Z,100372.34
2018-09-08T13:13:08.532Z,100375.56
2018-09-08T13:15:36.335Z,100366.38
2018-09-08T13:18:04.070Z,100366.73
2018-09-08T13:20:31.782Z,100357.47
2018-09-08T13:22:59.516Z,100355.48
2018-09-08T13:25:27.313Z,100357.82
2018-09-08T13:27:55.019Z,100352.39
2018-09-08T13:30:22.863Z,100342.77
2018-09-08T13:32:50.530Z,100345.52
2018-09-08T13:35:18.563Z,100347.59
2018-09-08T13:37:46.311Z,100355.92
2018-09-08T13:40:14.938Z,100352.04
2018-09-08T13:42:42.911Z,100339.52
2018-09-08T13:45:10.595Z,100333.24
2018-09-08T13:47:38.290Z,100331.12
2018-09-08T13:50:06.152Z,100342.50
2018-09-08T13:52:33.829Z,100336.57
2018-09-08T13:55:01.946Z,100336.55
2018-09-08T13:57:29.727Z,100334.95
2018-09-08T13:59:57.666Z,100330.67
2018-09-08T14:02:25.516Z,100328.41
2018-09-08T14:04:53.316Z,100329.53
2018-09-08T14:07:21.275Z,100325.06
2018-09-08T14:09:49.035Z,100330.11
2018-09-08T14:12:17.635Z,100336.52
2018-09-08T14:14:45.411Z,100330.86
2018-09-08T14:17:13.093Z,100330.30
2018-09-08T14:19:40.946Z,100329.53
2018-09-08T14:22:08.707Z,100332.33
2018-09-08T14:24:36.507Z,100324.96
2018-09-08T14:27:04.553Z,100322.53
2018-09-08T14:29:32.304Z,100322.80
2018-09-08T14:32:00.239Z,100323.31
2018-09-08T14:34:27.934Z,100315.05
2018-09-08T14:36:55.615Z,100313.42
2018-09-08T14:39:23.521Z,100310.52
2018-09-08T14:41:54.999Z,100308.52
2018-09-08T14:44:22.682Z,100317.34
2018-09-08T14:46:50.443Z,100319.14
2018-09-08T14:49:18.111Z,100319.62
2018-09-08T14:51:45.812Z,100317.58
2018-09-08T14:54:13.747Z,100318.97
2018-09-08T14:56:41.658Z,100317.27
2018-09-08T14:59:09.372Z,100313.69
2018-09-08T15:01:37.330Z,100311.59
2018-09-08T15:04:05.112Z,100310.45
2018-09-08T15:06:32.850Z,100315.93
2018-09-08T15:09:00.771Z,100323.33
2018-09-08T15:11:28.575Z,100320.31
2018-09-08T15:13:56.275Z,100313.29
2018-09-08T15:16:24.003Z,100312.59
2018-09-08T15:18:51.762Z,100309.65
2018-09-08T15:21:19.423Z,100309.50
2018-09-08T15:23:47.175Z,100309.63
2018-09-08T15:26:15.121Z,100314.13
2018-09-08T15:28:42.995Z,100322.25
2018-09-08T15:31:10.685Z,100322.48
2018-09-08T15:33:38.462Z,100319.45
2018-09-08T15:36:06.249Z,100321.56
2018-09-08T15:38:33.931Z,100322.31
2018-09-08T15:41:01.683Z,100315.00
2018-09-08T15:43:33.015Z,100317.95
2018-09-08T15:46:00.829Z,100322.19
2018-09-08T15:48:28.503Z,100318.96
2018-09-08T15:50:56.199Z,100326.42
2018-09-08T15:53:23.989Z,100319.33
2018-09-08T15:55:51.739Z,100326.29
2018-09-08T15:58:19.692Z,100320.61
2018-09-08T16:00:47.424Z,100328.25
2018-09-08T16:03:15.630Z,100319.92
2018-09-08T16:05:43.419Z,100327.06
2018-09-08T16:08:11.183Z,100322.59
2018-09-08T16:10:38.977Z,100322.75
2018-09-08T16:13:07.606Z,100321.05
2018-09-08T16:15:35.815Z,100324.19
2018-09-08T16:18:03.550Z,100316.29
2018-09-08T16:20:31.267Z,100311.35
2018-09-08T16:22:59.006Z,100306.04
2018-09-08T16:25:26.834Z,100302.56
2018-09-08T16:27:54.555Z,100307.78
2018-09-08T16:30:22.279Z,100307.19
2018-09-08T16:32:50.317Z,100310.50
2018-09-08T16:35:18.039Z,100311.89
2018-09-08T16:37:45.814Z,100304.69
2018-09-08T16:40:13.515Z,100313.29
2018-09-08T16:42:41.326Z,100307.88
2018-09-08T16:45:09.150Z,100302.27
2018-09-08T16:47:36.913Z,100309.59
2018-09-08T16:50:04.792Z,100312.70
2018-09-08T16:52:32.468Z,100312.14
2018-09-08T16:55:00.203Z,100310.38
2018-09-08T16:57:28.176Z,100307.65
2018-09-08T16:59:55.862Z,100309.25
2018-09-08T17:02:23.835Z,100314.72
2018-09-08T17:04:51.640Z,100314.16
2018-09-08T17:07:19.283Z,100311.14
2018-09-08T17:09:46.980Z,100318.01
2018-09-08T17:12:14.691Z,100309.97
2018-09-08T17:14:42.498Z,100314.06
2018-09-08T17:17:10.179Z,100313.98
2018-09-08T17:19:37.890Z,100313.84
2018-09-08T17:22:05.611Z,100314.77
2018-09-08T17:24:33.367Z,100315.29
2018-09-08T17:27:01.104Z,100312.01
2018-09-08T17:29:28.856Z,100318.84
2018-09-08T17:31:56.604Z,100322.83
2018-09-08T17:34:24.280Z,100322.73
2018-09-08T17:36:52.015Z,100326.20
2018-09-08T17:39:20.014Z,100322.23
2018-09-08T17:41:47.719Z,100317.54
2018-09-08T17:44:15.482Z,100320.44
2018-09-08T17:46:43.507Z,100318.90
2018-09-08T17:49:11.267Z,100321.19
2018-09-08T17:51:38.999Z,100325.23
2018-09-08T17:54:06.710Z,100323.34
2018-09-08T17:56:34.411Z,100322.06
2018-09-08T17:59:02.365Z,100326.73
2018-09-08T18:01:30.012Z,100322.48
2018-09-08T18:03:57.911Z,100324.14
2018-09-08T18:06:26.004Z,100326.80
2018-09-08T18:08:53.784Z,100326.06
2018-09-08T18:11:21.469Z,100334.56
2018-09-08T18:13:49.167Z,100332.66
2018-09-08T18:16:17.778Z,100338.77
2018-09-08T18:18:45.483Z,100338.03
2018-09-08T18:21:13.135Z,100337.07
2018-09-08T18:23:41.259Z,100335.97
2018-09-08T18:26:15.329Z,100336.74
2018-09-08T18:28:43.082Z,100339.36
2018-09-08T18:31:10.871Z,100343.11
2018-09-08T18:33:38.627Z,100342.88
2018-09-08T18:36:06.774Z,100338.94
2018-09-08T18:38:34.590Z,100347.03
2018-09-08T18:41:02.302Z,100345.34
2018-09-08T18:43:30.046Z,100345.97
2018-09-08T18:45:58.927Z,100347.05
2018-09-08T18:48:26.998Z,100351.78
2018-09-08T18:50:54.792Z,100351.97
2018-09-08T18:53:22.474Z,100350.64
2018-09-08T18:55:50.411Z,100352.11
2018-09-08T18:58:18.872Z,100358.64
2018-09-08T19:00:46.539Z,100357.54
2018-09-08T19:03:14.314Z,100361.86
2018-09-08T19:05:42.307Z,100362.52
2018-09-08T19:08:10.015Z,100363.66
2018-09-08T19:10:37.862Z,100356.33
2018-09-08T19:13:05.626Z,100364.33
2018-09-08T19:15:33.520Z,100363.81
2018-09-08T19:18:01.295Z,100371.10
2018-09-08T19:20:34.863Z,100369.80
2018-09-08T19:23:02.925Z,100370.34
2018-09-08T19:25:30.627Z,100367.29
2018-09-08T19:28:01.672Z,100368.64
2018-09-08T19:30:31.386Z,100375.50
2018-09-08T19:32:59.341Z,100368.98
2018-09-08T19:35:32.859Z,100366.65
2018-09-08T19:38:00.653Z,100366.19
2018-09-08T19:40:41.215Z,100370.77
2018-09-08T19:43:09.066Z,100374.67
2018-09-08T19:45:36.836Z,100379.77
2018-09-08T19:48:21.117Z,100377.64
2018-09-08T19:50:48.863Z,100371.23
2018-09-08T19:53:22.369Z,100374.50
2018-09-08T19:55:50.286Z,100371.64
2018-09-08T19:58:23.900Z,100372.16
2018-09-08T20:00:51.600Z,100375.89
2018-09-08T20:03:19.470Z,100375.72
2018-09-08T20:05:47.210Z,100376.70
2018-09-08T20:08:15.012Z,100378.67
2018-09-08T20:10:42.838Z,100374.78
2018-09-08T20:13:10.524Z,100376.11
2018-09-08T20:15:38.248Z,100371.84
2018-09-08T20:18:06.027Z,100372.86
2018-09-08T20:20:33.715Z,100379.27
2018-09-08T20:23:01.900Z,100377.84
2018-09-08T20:25:29.923Z,100376.22
2018-09-08T20:27:57.711Z,100374.98
2018-09-08T20:30:25.466Z,100373.66
2018-09-08T20:32:53.170Z,100369.47
2018-09-08T20:35:20.997Z,100372.23
2018-09-08T20:37:48.765Z,100365.27
2018-09-08T20:40:16.578Z,100359.67
2018-09-08T20:42:44.274Z,100361.80
2018-09-08T20:45:11.975Z,100350.09
2018-09-08T20:47:39.764Z,100354.37
2018-09-08T20:50:07.712Z,100351.63
2018-09-08T20:52:35.452Z,100356.41
2018-09-08T20:55:03.351Z,100359.36
2018-09-08T20:57:34.035Z,100366.48
2018-09-08T21:00:02.198Z,100359.85
2018-09-08T21:02:29.911Z,100369.11
2018-09-08T21:04:57.619Z,100370.13
2018-09-08T21:07:25.394Z,100369.40
2018-09-08T21:09:53.146Z,100366.37
2018-09-08T21:12:20.807Z,100376.73
2018-09-08T21:14:48.535Z,100375.35
2018-09-08T21:17:16.213Z,100375.56
2018-09-08T21:19:43.930Z,100382.58
2018-09-08T21:22:11.637Z,100376.88
2018-09-08T21:24:39.487Z,100382.89
2018-09-08T21:27:07.192Z,100385.53
2018-09-08T21:29:34.965Z,100388.16
2018-09-08T21:32:02.646Z,100390.16
2018-09-08T21:34:30.452Z,100385.61
2018-09-08T21:36:58.153Z,100388.45
2018-09-08T21:39:25.880Z,100391.08
2018-09-08T21:41:53.926Z,100387.18
2018-09-08T21:44:21.655Z,100394.91
2018-09-08T21:46:49.380Z,100394.70
2018-09-08T21:49:17.095Z,100391.25
2018-09-08T21:51:44.832Z,100390.00
2018-09-08T21:54:12.495Z,100392.44
2018-09-08T21:56:40.199Z,100390.61
2018-09-08T21:59:07.899Z,100393.77
2018-09-08T22:01:35.587Z,100388.98
2018-09-08T22:04:03.583Z,100384.10
2018-09-08T22:06:31.229Z,100392.55
2018-09-08T22:08:58.979Z,100391.22
2018-09-08T22:11:26.702Z,100391.70
2018-09-08T22:13:54.572Z,100390.78
2018-09-08T22:16:22.390Z,100393.09
2018-09-08T22:18:50.111Z,100398.75
2018-09-08T22:21:17.811Z,100396.00
2018-09-08T22:23:45.500Z,100389.83
2018-09-08T22:26:13.182Z,100399.73
2018-09-08T22:28:40.912Z,100393.72
2018-09-08T22:31:08.595Z,100391.19
2018-09-08T22:33:36.691Z,100396.50
2018-09-08T22:36:04.379Z,100395.84
2018-09-08T22:38:32.178Z,100397.25
2018-09-08T22:40:59.867Z,100404.03
2018-09-08T22:43:27.540Z,100399.56
2018-09-08T22:45:55.255Z,100399.09
2018-09-08T22:48:23.227Z,100399.47
2018-09-08T22:50:50.898Z,100406.91
2018-09-08T22:53:18.594Z,100408.16
2018-09-08T22:55:46.326Z,100409.64
2018-09-08T22:58:14.071Z,100406.89
2018-09-08T23:00:41.803Z,100408.86
2018-09-08T23:03:09.523Z,100419.87
2018-09-08T23:05:37.198Z,100417.91
2018-09-08T23:08:04.988Z,100411.95
2018-09-08T23:10:32.684Z,100415.77
2018-09-08T23:13:00.347Z,100420.32
2018-09-08T23:15:28.347Z,100424.64
2018-09-08T23:17:56.102Z,100423.13
2018-09-08T23:20:23.962Z,100424.50
2018-09-08T23:22:58.507Z,100430.37
2018-09-08T23:25:26.327Z,100430.16
2018-09-08T23:27:54.051Z,100425.78
2018-09-08T23:30:22.111Z,100433.05
2018-09-08T23:32:49.806Z,100431.66
2018-09-08T23:35:17.711Z,100433.87
2018-09-08T23:37:45.402Z,100424.33
2018-09-08T23:40:13.204Z,100437.53
2018-09-08T23:42:40.933Z,100431.37
2018-09-08T23:45:08.666Z,100438.52
2018-09-08T23:47:36.795Z,100437.43
2018-09-08T23:50:04.538Z,100436.55
2018-09-08T23:52:32.243Z,100437.94
2018-09-08T23:54:59.962Z,100433.64
2018-09-08T23:57:27.986Z,100437.05
2018-09-08T23:59:55.706Z,100431.19
